Aérodrome :
LOGIN :

S'inscrire | Disclaimer

   EN    FR    IT 

 










Légende :    VFR   VFR Marginal   IFR   IFR Intensif   IFR Très Intensif
Visi : 
Plafond : 
>= 8 km
>= 3000ft
5 à 8 km
1000 à 3000 ft
1500m à 5 km
500 à 1000 ft
800 à 1500m
200 à 500 ft
< 800m
< 200 ft
Symboles :   Orages  Brouillard  Fortes neiges  Fortes précipitations  Vent > 20 kt
SIGMETs :   Divers  Orages  Givrage  Turbulence  Onde Orograph.  Cendres Volcan.







- Altitude de l'aérodrome : -15 ft
- Code IATA : RTM


EHRD - Rotterdam Zestienhoven

DERNIER METAR :
  • 240425Z AUTO 00000KT 1100 R06/0700U BR NSC 01/01 Q1030 NOSIG

METARs EXPIRÉS :
  • 240355Z AUTO 35001KT 4000 BR NSC 01/01 Q1030 NOSIG
  • 240325Z AUTO 01001KT 0900 R06/1100N FZFG NSC M00/M00 Q1030 NOSIG
  • 240255Z AUTO 35003KT 310V040 9000 FEW012 00/00 Q1031 NOSIG
  • 240225Z AUTO VRB01KT 6000 NSC 02/02 Q1031 NOSIG
  • 240155Z AUTO VRB01KT 9999 NSC 01/01 Q1031 NOSIG

TAF TAF EHRD
Valide du 24 à 00h jusqu'au 25 à 06h UTC


232250Z 2400/2506 36005KT CAVOK
PROB30 2401/2407 1000 BCFG
BECMG 2410/2413 29010KT
BECMG 2417/2420 23007KT
BECMG 2422/2501 31017G27KT
TEMPO 2500/2503 5000 SHRA RA BKN018 SCT020TCU
Pas de NOTAMs connus pour ce terrain.



MET'MAP, la Météo Aéronautique d'un coup d'oeil ! - Copyright ORBIFLY Décembre 2007 - Disclaimer

ORBIFLY MET'MAP TEAM :

Programmation & Développement : Alexandra Zaïnal
Conception & Développement : Baudouin d'Aumeries
Co-Programmation & Développement : Marc-Olivier Méhu
Soutien technique & logistique : Manuel Goepfert

Contact : metmap@orbifly.com




SOURCES & CREDITS :

   NOAA